Ana Sayfa
METAR-TAF:

METAR-TAF

Havaalanları :

Sussex County Airport

Georgetown, Delaware, Amerika Birleşik Devletleri

Enlem: 38-41-24N, Boylam: 075-21-45W, yükseklik: 15 m

Güncel hava durumu gözlemi

Rapor saat 09:10 UTC de 21 dakika önce yapıldı.
Rüzgar güney/güneybatıdan 4 kt
Sıcaklık 8°C
Nem 100%
Basınç 1013 hPa
Görüş mesafesi: 9.7 km
600 ft yükseklikte parçalı bulutlu
3600 ft yükseklikte parçalı çok bulutlu
6000 ft yükseklikte çok bulutlu
Pus

METAR: KGED 250910Z AUTO 21004KT 6SM BR SCT006 BKN036 OVC060 08/08 A2991 RMK AO2 RAE10 P0000 T00830078 TSNO

Saat: 04:31 (09:31 UTC)


TAF: eksik

4.000'den fazla havaalanı için hava durumu gözlemleri ve tahminleri (METAR ve TAF raporları).

Kullanılabilir istasyonlar harita üzerinde sarı ve kırmızı noktalarla gösterilir.

İstasyonun adını görmek için fareyi noktanın üzerinde gezdirin.

Sonrasında hava gözlem ve tahminlerini görmek için tıklayın.

Haritayı değiştirmek için: yaklaştırmak için siyah artı işaretli yeşil düğmeye ve uzaklaştırmak için de eksi işaretli düğmeye hızla tıklayın; bitişik haritalar için yeşil okları kullanın.


METAR-TAF: